createdAt,value
2018-06-19T00:02:03.674Z,18.40
2018-06-19T00:04:32.799Z,18.30
2018-06-19T00:07:00.996Z,18.30
2018-06-19T00:09:29.678Z,18.20
2018-06-19T00:11:57.826Z,18.20
2018-06-19T00:14:25.966Z,18.20
2018-06-19T00:16:55.431Z,18.10
2018-06-19T00:19:23.813Z,18.10
2018-06-19T00:21:55.161Z,18.10
2018-06-19T00:24:23.333Z,18.10
2018-06-19T00:26:51.497Z,18.10
2018-06-19T00:29:19.702Z,18.10
2018-06-19T00:31:48.509Z,18.10
2018-06-19T00:34:16.674Z,18.10
2018-06-19T00:36:44.821Z,18.10
2018-06-19T00:39:13.350Z,18.00
2018-06-19T00:41:41.953Z,18.00
2018-06-19T00:44:10.834Z,18.00
2018-06-19T00:46:42.199Z,18.00
2018-06-19T00:49:10.323Z,18.00
2018-06-19T00:51:38.498Z,18.00
2018-06-19T00:54:06.862Z,17.90
2018-06-19T00:56:46.539Z,17.90
2018-06-19T00:59:14.686Z,17.90
2018-06-19T01:01:42.822Z,17.90
2018-06-19T01:04:11.015Z,17.80
2018-06-19T01:09:08.822Z,17.80
2018-06-19T01:11:37.041Z,17.70
2018-06-19T01:14:05.186Z,17.70
2018-06-19T01:16:33.333Z,17.70
2018-06-19T01:19:01.602Z,17.80
2018-06-19T01:21:29.825Z,17.70
2018-06-19T01:23:58.873Z,17.80
2018-06-19T01:26:27.181Z,17.80
2018-06-19T01:28:55.549Z,17.70
2018-06-19T01:31:23.690Z,17.70
2018-06-19T01:33:52.106Z,17.80
2018-06-19T01:36:20.577Z,17.80
2018-06-19T01:38:48.970Z,17.80
2018-06-19T01:41:17.102Z,17.80
2018-06-19T01:43:46.242Z,17.80
2018-06-19T01:46:14.486Z,17.90
2018-06-19T01:48:42.746Z,17.80
2018-06-19T01:51:10.886Z,17.80
2018-06-19T01:53:39.030Z,17.80
2018-06-19T01:56:07.170Z,17.80
2018-06-19T01:58:35.329Z,17.80
2018-06-19T02:01:03.521Z,17.80
2018-06-19T02:03:31.657Z,17.80
2018-06-19T02:05:59.812Z,17.70
2018-06-19T02:08:27.941Z,17.70
2018-06-19T02:10:56.098Z,17.80
2018-06-19T02:13:24.230Z,17.80
2018-06-19T02:15:52.382Z,17.80
2018-06-19T02:18:20.543Z,17.80
2018-06-19T02:20:48.686Z,17.80
2018-06-19T02:23:16.826Z,17.80
2018-06-19T02:25:44.966Z,17.80
2018-06-19T02:28:13.233Z,17.80
2018-06-19T02:30:41.482Z,17.80
2018-06-19T02:33:09.647Z,17.80
2018-06-19T02:35:37.789Z,17.80
2018-06-19T02:38:05.971Z,17.80
2018-06-19T02:40:34.123Z,17.80
2018-06-19T02:43:02.269Z,17.80
2018-06-19T02:45:30.475Z,17.80
2018-06-19T02:47:58.606Z,17.80
2018-06-19T02:50:26.787Z,17.90
2018-06-19T02:52:54.914Z,17.90
2018-06-19T02:55:23.063Z,17.80
2018-06-19T02:57:51.217Z,17.80
2018-06-19T03:00:19.870Z,17.80
2018-06-19T03:02:48.077Z,17.80
2018-06-19T03:05:16.222Z,17.80
2018-06-19T03:10:12.291Z,17.80
2018-06-19T03:12:40.518Z,17.80
2018-06-19T03:15:08.754Z,17.90
2018-06-19T03:17:37.761Z,17.90
2018-06-19T03:20:06.054Z,17.90
2018-06-19T03:22:34.230Z,17.90
2018-06-19T03:25:02.367Z,17.80
2018-06-19T03:27:30.506Z,17.80
2018-06-19T03:29:58.678Z,17.80
2018-06-19T03:32:27.448Z,17.80
2018-06-19T03:34:56.238Z,17.80
2018-06-19T03:37:24.441Z,17.80
2018-06-19T03:39:52.570Z,17.80
2018-06-19T03:42:20.722Z,17.80
2018-06-19T03:44:48.858Z,17.80
2018-06-19T03:47:17.020Z,17.80
2018-06-19T03:49:45.949Z,17.70
2018-06-19T03:52:14.098Z,17.80
2018-06-19T03:54:42.372Z,17.90
2018-06-19T03:57:10.531Z,17.90
2018-06-19T03:59:38.669Z,17.80
2018-06-19T04:02:06.986Z,17.80
2018-06-19T04:07:03.237Z,17.70
2018-06-19T04:09:31.374Z,17.70
2018-06-19T04:11:59.529Z,17.60
2018-06-19T04:14:27.669Z,17.70
2018-06-19T04:16:55.817Z,17.70
2018-06-19T04:19:24.018Z,17.60
2018-06-19T04:24:20.102Z,17.50
2018-06-19T04:26:48.254Z,17.50
2018-06-19T04:29:16.406Z,17.60
2018-06-19T04:31:44.557Z,17.60
2018-06-19T04:34:12.758Z,17.60
2018-06-19T04:36:40.930Z,17.60
2018-06-19T04:39:10.753Z,17.60
2018-06-19T04:41:38.920Z,17.70
2018-06-19T04:44:07.325Z,17.70
2018-06-19T04:46:35.474Z,17.70
2018-06-19T04:49:03.778Z,17.70
2018-06-19T04:51:31.953Z,17.70
2018-06-19T04:54:00.245Z,17.70
2018-06-19T04:56:28.406Z,17.60
2018-06-19T04:58:56.631Z,17.50
2018-06-19T05:01:24.853Z,17.50
2018-06-19T05:03:53.001Z,17.60
2018-06-19T05:06:21.137Z,17.60
2018-06-19T05:08:49.490Z,17.50
2018-06-19T05:11:17.638Z,17.50
2018-06-19T05:13:45.813Z,17.50
2018-06-19T05:16:13.943Z,17.60
2018-06-19T05:18:42.086Z,17.60
2018-06-19T05:21:10.265Z,17.60
2018-06-19T05:23:38.449Z,17.70
2018-06-19T05:26:06.689Z,17.70
2018-06-19T05:28:34.870Z,17.70
2018-06-19T05:31:03.105Z,17.70
2018-06-19T05:33:31.242Z,17.70
2018-06-19T05:35:59.437Z,17.80
2018-06-19T05:38:27.594Z,17.80
2018-06-19T05:40:55.793Z,17.80
2018-06-19T05:43:23.971Z,17.80
2018-06-19T05:45:52.126Z,17.80
2018-06-19T05:48:20.281Z,17.80
2018-06-19T05:50:48.467Z,17.80
2018-06-19T05:53:16.650Z,17.80
2018-06-19T05:55:44.802Z,17.80
2018-06-19T05:58:12.957Z,17.80
2018-06-19T06:00:41.134Z,17.80
2018-06-19T06:03:09.279Z,17.80
2018-06-19T06:05:37.519Z,17.80
2018-06-19T06:08:06.158Z,17.80
2018-06-19T06:10:35.311Z,17.80
2018-06-19T06:13:03.424Z,17.80
2018-06-19T06:15:31.632Z,17.80
2018-06-19T06:17:59.790Z,17.80
2018-06-19T06:20:27.933Z,17.80
2018-06-19T06:22:56.074Z,17.80
2018-06-19T06:25:24.293Z,17.90
2018-06-19T06:27:52.474Z,17.90
2018-06-19T06:30:20.610Z,17.90
2018-06-19T06:32:48.818Z,17.90
2018-06-19T06:35:17.153Z,17.90
2018-06-19T06:37:45.316Z,17.90
2018-06-19T06:40:13.572Z,18.00
2018-06-19T06:42:41.777Z,18.00
2018-06-19T06:45:09.939Z,18.00
2018-06-19T06:47:38.126Z,18.00
2018-06-19T06:50:06.306Z,17.90
2018-06-19T06:52:34.461Z,18.00
2018-06-19T06:55:02.739Z,18.00
2018-06-19T06:57:30.926Z,18.10
2018-06-19T06:59:59.184Z,18.00
2018-06-19T07:02:27.325Z,18.00
2018-06-19T07:04:55.666Z,18.00
2018-06-19T07:07:24.702Z,18.00
2018-06-19T07:09:52.850Z,18.00
2018-06-19T07:12:20.997Z,18.00
2018-06-19T07:14:49.214Z,18.00
2018-06-19T07:17:17.554Z,18.00
2018-06-19T07:19:45.727Z,18.10
2018-06-19T07:22:13.869Z,18.10
2018-06-19T07:24:42.005Z,18.10
2018-06-19T07:27:10.174Z,18.20
2018-06-19T07:29:38.353Z,18.20
2018-06-19T07:32:07.019Z,18.20
2018-06-19T07:34:35.109Z,18.10
2018-06-19T07:37:03.350Z,18.10
2018-06-19T07:39:31.541Z,18.10
2018-06-19T07:41:59.678Z,18.10
2018-06-19T07:44:27.869Z,18.10
2018-06-19T07:46:56.077Z,18.10
2018-06-19T07:49:24.239Z,18.20
2018-06-19T07:51:52.373Z,18.20
2018-06-19T07:54:20.526Z,18.10
2018-06-19T07:56:48.735Z,18.20
2018-06-19T07:59:16.917Z,18.20
2018-06-19T08:01:45.426Z,18.30
2018-06-19T08:04:13.574Z,18.20
2018-06-19T08:06:41.790Z,18.20
2018-06-19T08:09:10.980Z,18.20
2018-06-19T08:11:39.129Z,18.20
2018-06-19T08:14:07.318Z,18.20
2018-06-19T08:16:35.505Z,18.20
2018-06-19T08:19:03.695Z,18.30
2018-06-19T08:21:31.837Z,18.30
2018-06-19T08:23:59.991Z,18.30
2018-06-19T08:26:28.135Z,18.30
2018-06-19T08:28:56.610Z,18.30
2018-06-19T08:31:24.762Z,18.30
2018-06-19T08:33:53.058Z,18.30
2018-06-19T08:36:21.355Z,18.40
2018-06-19T08:38:49.445Z,18.30
2018-06-19T08:41:17.601Z,18.40
2018-06-19T08:43:45.810Z,18.40
2018-06-19T08:46:13.920Z,18.40
2018-06-19T08:48:42.118Z,18.50
2018-06-19T08:51:10.301Z,18.40
2018-06-19T08:53:38.437Z,18.50
2018-06-19T08:56:06.644Z,18.60
2018-06-19T08:58:35.042Z,18.60
2018-06-19T09:01:03.203Z,18.70
2018-06-19T09:03:31.451Z,18.60
2018-06-19T09:05:59.685Z,18.60
2018-06-19T09:08:27.828Z,18.60
2018-06-19T09:10:55.983Z,18.70
2018-06-19T09:13:24.217Z,18.70
2018-06-19T09:15:52.378Z,18.80
2018-06-19T09:18:20.641Z,18.90
2018-06-19T09:20:48.798Z,18.90
2018-06-19T09:23:16.946Z,18.90
2018-06-19T09:25:45.103Z,18.90
2018-06-19T09:28:13.294Z,18.90
2018-06-19T09:33:09.530Z,19.00
2018-06-19T09:35:37.694Z,19.00
2018-06-19T09:38:06.077Z,19.00
2018-06-19T09:40:34.230Z,19.00
2018-06-19T09:43:02.381Z,19.00
2018-06-19T09:45:30.550Z,19.00
2018-06-19T09:47:58.943Z,19.00
2018-06-19T09:50:27.209Z,19.10
2018-06-19T09:52:55.400Z,19.20
2018-06-19T09:55:23.546Z,19.30
2018-06-19T09:57:53.272Z,19.30
2018-06-19T10:00:36.907Z,19.40
2018-06-19T10:03:05.287Z,19.50
2018-06-19T10:05:33.518Z,19.50
2018-06-19T10:08:02.042Z,19.50
2018-06-19T10:10:30.266Z,19.50
2018-06-19T10:12:58.470Z,19.60
2018-06-19T10:15:26.615Z,19.70
2018-06-19T10:17:54.769Z,19.80
2018-06-19T10:20:22.938Z,19.80
2018-06-19T10:22:51.598Z,19.90
2018-06-19T10:25:19.774Z,19.90
2018-06-19T10:27:48.655Z,19.90
2018-06-19T10:30:17.454Z,19.90
2018-06-19T10:32:45.670Z,19.90
2018-06-19T10:35:13.897Z,20.00
2018-06-19T10:37:42.074Z,20.10
2018-06-19T10:40:10.230Z,20.10
2018-06-19T10:42:38.374Z,20.20
2018-06-19T10:45:06.701Z,20.30
2018-06-19T10:47:34.875Z,20.30
2018-06-19T10:50:03.116Z,20.40
2018-06-19T10:52:31.254Z,20.50
2018-06-19T10:54:59.414Z,20.60
2018-06-19T10:57:27.582Z,20.60
2018-06-19T10:59:55.744Z,20.70
2018-06-19T11:02:23.918Z,20.70
2018-06-19T11:04:52.062Z,20.70
2018-06-19T11:07:25.704Z,20.70
2018-06-19T11:09:53.890Z,20.70
2018-06-19T11:12:22.091Z,20.70
2018-06-19T11:14:50.246Z,20.70
2018-06-19T11:17:18.395Z,20.70
2018-06-19T11:19:46.761Z,20.70
2018-06-19T11:22:14.942Z,20.70
2018-06-19T11:24:43.086Z,20.70
2018-06-19T11:27:11.264Z,20.80
2018-06-19T11:29:39.436Z,20.80
2018-06-19T11:32:07.576Z,20.80
2018-06-19T11:34:35.770Z,20.80
2018-06-19T11:37:03.907Z,20.80
2018-06-19T11:39:32.090Z,20.80
2018-06-19T11:42:00.370Z,20.80
2018-06-19T11:46:56.456Z,20.70
2018-06-19T11:49:24.606Z,20.70
2018-06-19T11:51:52.873Z,20.60
2018-06-19T11:54:21.009Z,20.60
2018-06-19T11:56:49.257Z,20.60
2018-06-19T11:59:17.374Z,20.60
2018-06-19T12:01:45.601Z,20.60
2018-06-19T12:04:13.745Z,20.60
2018-06-19T12:06:41.961Z,20.60
2018-06-19T12:09:10.642Z,20.70
2018-06-19T12:11:39.118Z,20.70
2018-06-19T12:16:35.347Z,20.90
2018-06-19T12:19:03.498Z,20.90
2018-06-19T12:21:31.645Z,20.90
2018-06-19T12:23:59.854Z,21.00
2018-06-19T12:26:27.957Z,21.00
2018-06-19T12:28:56.141Z,21.00
2018-06-19T12:31:24.338Z,21.00
2018-06-19T12:33:52.479Z,20.90
2018-06-19T12:36:20.643Z,21.00
2018-06-19T12:38:48.806Z,21.00
2018-06-19T12:41:17.594Z,21.10
2018-06-19T12:43:45.773Z,21.10
2018-06-19T12:46:13.922Z,21.10
2018-06-19T12:48:42.100Z,21.30
2018-06-19T12:51:47.677Z,21.30
2018-06-19T12:55:35.026Z,21.40
2018-06-19T12:58:03.193Z,21.50
2018-06-19T13:00:31.345Z,21.60
2018-06-19T13:03:10.894Z,21.60
2018-06-19T13:05:50.470Z,21.60
2018-06-19T13:08:18.674Z,21.70
2018-06-19T13:10:46.822Z,21.70
2018-06-19T13:13:27.754Z,21.70
2018-06-19T13:15:56.233Z,21.70
2018-06-19T13:18:37.213Z,21.70
2018-06-19T13:21:05.495Z,21.70
2018-06-19T13:23:33.975Z,21.70
2018-06-19T13:26:02.130Z,21.70
2018-06-19T13:28:41.626Z,21.70
2018-06-19T13:31:21.290Z,21.80
2018-06-19T13:33:49.458Z,21.80
2018-06-19T13:36:17.612Z,21.80
2018-06-19T13:38:45.770Z,21.80
2018-06-19T13:41:26.314Z,21.80
2018-06-19T13:44:07.698Z,21.80
2018-06-19T13:46:35.857Z,21.80
2018-06-19T13:49:04.087Z,21.90
2018-06-19T13:51:32.240Z,21.90
2018-06-19T13:54:01.868Z,21.90
2018-06-19T13:57:46.185Z,22.00
2018-06-19T14:00:22.122Z,21.90
2018-06-19T14:05:19.922Z,21.90
2018-06-19T14:08:06.479Z,22.00
2018-06-19T14:10:47.095Z,21.90
2018-06-19T14:13:16.294Z,21.90
2018-06-19T14:15:49.042Z,21.90
2018-06-19T14:18:18.233Z,21.90
2018-06-19T14:20:46.423Z,22.00
2018-06-19T14:23:14.790Z,22.00
2018-06-19T14:25:43.129Z,22.10
2018-06-19T14:28:11.309Z,22.00
2018-06-19T14:30:39.523Z,22.10
2018-06-19T14:33:07.803Z,22.10
2018-06-19T14:35:35.902Z,22.20
2018-06-19T14:38:05.145Z,22.20
2018-06-19T14:40:33.313Z,22.20
2018-06-19T14:43:01.546Z,22.30
2018-06-19T14:45:29.768Z,22.30
2018-06-19T14:47:57.940Z,22.30
2018-06-19T14:50:26.095Z,22.20
2018-06-19T14:52:54.233Z,22.10
2018-06-19T14:55:22.385Z,22.10
2018-06-19T14:57:50.596Z,22.00
2018-06-19T15:00:18.746Z,21.90
2018-06-19T15:02:46.919Z,21.90
2018-06-19T15:05:15.058Z,21.80
2018-06-19T15:07:48.902Z,21.80
2018-06-19T15:10:17.910Z,21.80
2018-06-19T15:12:46.585Z,21.80
2018-06-19T15:15:14.907Z,21.90
2018-06-19T15:17:43.038Z,21.90
2018-06-19T15:20:12.106Z,21.90
2018-06-19T15:22:41.594Z,22.00
2018-06-19T15:25:09.762Z,22.00
2018-06-19T15:27:37.917Z,22.00
2018-06-19T15:30:06.083Z,22.10
2018-06-19T15:32:34.312Z,22.10
2018-06-19T15:35:03.453Z,22.00
2018-06-19T15:37:31.678Z,22.00
2018-06-19T15:39:59.805Z,22.00
2018-06-19T15:42:27.953Z,21.90
2018-06-19T15:44:56.137Z,21.90
2018-06-19T15:47:24.370Z,21.90
2018-06-19T15:49:52.605Z,22.00
2018-06-19T15:52:20.806Z,22.00
2018-06-19T15:54:48.942Z,22.00
2018-06-19T15:57:17.089Z,22.00
2018-06-19T15:59:45.221Z,22.00
2018-06-19T16:02:13.391Z,22.10
2018-06-19T16:07:09.514Z,22.10
2018-06-19T16:09:37.681Z,22.20
2018-06-19T16:12:06.107Z,22.20
2018-06-19T16:14:34.257Z,22.20
2018-06-19T16:17:02.426Z,22.30
2018-06-19T16:19:30.598Z,22.30
2018-06-19T16:21:58.758Z,22.30
2018-06-19T16:24:26.907Z,22.30
2018-06-19T16:26:55.309Z,22.30
2018-06-19T16:29:23.502Z,22.30
2018-06-19T16:31:51.645Z,22.40
2018-06-19T16:34:19.842Z,22.30
2018-06-19T16:36:47.981Z,22.30
2018-06-19T16:41:44.037Z,22.40
2018-06-19T16:44:12.202Z,22.40
2018-06-19T16:46:40.441Z,22.40
2018-06-19T16:49:08.613Z,22.40
2018-06-19T16:51:36.762Z,22.50
2018-06-19T16:54:04.918Z,22.40
2018-06-19T16:56:33.054Z,22.40
2018-06-19T16:59:01.262Z,22.40
2018-06-19T17:01:29.496Z,22.40
2018-06-19T17:03:57.752Z,22.40
2018-06-19T17:06:25.881Z,22.30
2018-06-19T17:08:54.494Z,22.30
2018-06-19T17:11:22.634Z,22.30
2018-06-19T17:13:50.933Z,22.30
2018-06-19T17:16:19.087Z,22.30
2018-06-19T17:18:47.242Z,22.30
2018-06-19T17:21:15.518Z,22.30
2018-06-19T17:23:43.618Z,22.20
2018-06-19T17:26:11.831Z,22.20
2018-06-19T17:28:40.050Z,22.20
2018-06-19T17:31:08.205Z,22.20
2018-06-19T17:33:36.346Z,22.20
2018-06-19T17:36:04.522Z,22.20
2018-06-19T17:38:32.658Z,22.20
2018-06-19T17:41:00.814Z,22.10
2018-06-19T17:43:29.051Z,22.10
2018-06-19T17:45:58.434Z,22.00
2018-06-19T17:48:26.605Z,22.00
2018-06-19T17:50:54.939Z,22.00
2018-06-19T17:53:23.108Z,22.00
2018-06-19T17:55:51.258Z,22.00
2018-06-19T17:58:19.406Z,21.90
2018-06-19T18:00:47.597Z,21.90
2018-06-19T18:03:15.774Z,21.90
2018-06-19T18:05:43.965Z,21.90
2018-06-19T18:08:12.126Z,21.90
2018-06-19T18:10:40.330Z,21.90
2018-06-19T18:13:08.494Z,21.90
2018-06-19T18:15:36.871Z,21.90
2018-06-19T18:18:05.102Z,21.90
2018-06-19T18:20:33.270Z,21.80
2018-06-19T18:23:01.422Z,21.80
2018-06-19T18:25:29.562Z,21.80
2018-06-19T18:27:57.724Z,21.80
2018-06-19T18:30:25.954Z,21.80
2018-06-19T18:32:54.130Z,21.80
2018-06-19T18:35:22.372Z,21.80
2018-06-19T18:37:50.550Z,21.80
2018-06-19T18:40:18.721Z,21.70
2018-06-19T18:42:46.882Z,21.70
2018-06-19T18:45:15.022Z,21.70
2018-06-19T18:47:43.202Z,21.60
2018-06-19T18:50:11.434Z,21.60
2018-06-19T18:52:39.585Z,21.60
2018-06-19T18:55:07.728Z,21.60
2018-06-19T18:57:35.885Z,21.60
2018-06-19T19:00:04.322Z,21.60
2018-06-19T19:02:32.470Z,21.60
2018-06-19T19:05:00.702Z,21.60
2018-06-19T19:07:28.933Z,21.60
2018-06-19T19:10:02.632Z,21.50
2018-06-19T19:12:30.876Z,21.60
2018-06-19T19:15:04.346Z,21.60
2018-06-19T19:17:37.849Z,21.50
2018-06-19T19:20:05.998Z,21.60
2018-06-19T19:22:34.169Z,21.60
2018-06-19T19:25:02.383Z,21.60
2018-06-19T19:27:35.797Z,21.50
2018-06-19T19:30:03.960Z,21.60
2018-06-19T19:32:32.109Z,21.50
2018-06-19T19:35:00.305Z,21.50
2018-06-19T19:37:33.914Z,21.50
2018-06-19T19:40:02.119Z,21.40
2018-06-19T19:42:30.234Z,21.50
2018-06-19T19:44:58.398Z,21.40
2018-06-19T19:47:31.971Z,21.40
2018-06-19T19:50:00.190Z,21.40
2018-06-19T19:52:28.330Z,21.30
2018-06-19T19:54:56.481Z,21.30
2018-06-19T19:57:29.981Z,21.20
2018-06-19T19:59:58.193Z,21.20
2018-06-19T20:02:26.342Z,21.20
2018-06-19T20:04:54.584Z,21.20
2018-06-19T20:07:22.730Z,21.10
2018-06-19T20:09:50.897Z,21.10
2018-06-19T20:12:19.074Z,21.10
2018-06-19T20:14:47.253Z,21.10
2018-06-19T20:17:16.436Z,21.10
2018-06-19T20:19:44.653Z,21.00
2018-06-19T20:22:12.797Z,21.00
2018-06-19T20:24:40.979Z,21.00
2018-06-19T20:27:09.182Z,21.00
2018-06-19T20:29:37.397Z,21.00
2018-06-19T20:32:05.566Z,21.00
2018-06-19T20:34:33.796Z,21.00
2018-06-19T20:37:02.013Z,21.00
2018-06-19T20:39:30.170Z,21.00
2018-06-19T20:41:58.322Z,20.90
2018-06-19T20:44:26.557Z,21.00
2018-06-19T20:46:54.780Z,20.90
2018-06-19T20:49:22.994Z,20.90
2018-06-19T20:51:51.187Z,20.90
2018-06-19T20:54:19.340Z,20.90
2018-06-19T20:56:47.481Z,20.90
2018-06-19T20:59:15.779Z,20.90
2018-06-19T21:01:44.009Z,20.90
2018-06-19T21:04:12.214Z,20.90
2018-06-19T21:06:40.365Z,20.90
2018-06-19T21:09:09.223Z,20.80
2018-06-19T21:11:37.373Z,20.80
2018-06-19T21:14:05.542Z,20.80
2018-06-19T21:16:33.753Z,20.80
2018-06-19T21:19:01.988Z,20.90
2018-06-19T21:21:30.373Z,20.80
2018-06-19T21:26:26.930Z,20.80
2018-06-19T21:28:55.141Z,20.80
2018-06-19T21:31:23.320Z,20.80
2018-06-19T21:33:51.446Z,20.70
2018-06-19T21:36:19.586Z,20.70
2018-06-19T21:38:47.738Z,20.70
2018-06-19T21:41:15.881Z,20.70
2018-06-19T21:43:44.036Z,20.70
2018-06-19T21:46:12.202Z,20.70
2018-06-19T21:48:40.429Z,20.70
2018-06-19T21:51:08.585Z,20.70
2018-06-19T21:53:36.738Z,20.60
2018-06-19T21:56:05.116Z,20.60
2018-06-19T21:58:33.315Z,20.60
2018-06-19T22:01:01.466Z,20.60
2018-06-19T22:03:29.727Z,20.60
2018-06-19T22:05:57.944Z,20.60
2018-06-19T22:08:32.082Z,20.50
2018-06-19T22:11:00.226Z,20.50
2018-06-19T22:13:28.379Z,20.40
2018-06-19T22:15:56.510Z,20.30
2018-06-19T22:18:24.737Z,20.30
2018-06-19T22:20:52.893Z,20.30
2018-06-19T22:23:21.042Z,20.30
2018-06-19T22:25:49.214Z,20.30
2018-06-19T22:28:17.366Z,20.30
2018-06-19T22:30:45.506Z,20.30
2018-06-19T22:33:13.703Z,20.30
2018-06-19T22:35:41.864Z,20.30
2018-06-19T22:38:10.056Z,20.30
2018-06-19T22:40:38.210Z,20.30
2018-06-19T22:43:06.351Z,20.30
2018-06-19T22:45:34.494Z,20.20
2018-06-19T22:48:02.650Z,20.20
2018-06-19T22:50:30.817Z,20.20
2018-06-19T22:52:59.017Z,20.20
2018-06-19T22:55:27.198Z,20.20
2018-06-19T22:57:55.366Z,20.10
2018-06-19T23:00:25.051Z,20.20
2018-06-19T23:02:57.994Z,20.20
2018-06-19T23:05:26.253Z,20.10
2018-06-19T23:07:54.586Z,20.10
2018-06-19T23:10:22.810Z,20.10
2018-06-19T23:12:51.249Z,20.10
2018-06-19T23:15:19.418Z,20.10
2018-06-19T23:17:47.697Z,20.00
2018-06-19T23:20:15.914Z,20.00
2018-06-19T23:22:45.970Z,20.00
2018-06-19T23:25:14.134Z,20.00
2018-06-19T23:27:42.326Z,20.00
2018-06-19T23:30:10.545Z,20.00
2018-06-19T23:32:38.686Z,20.00
2018-06-19T23:35:06.880Z,20.00
2018-06-19T23:37:35.023Z,19.90
2018-06-19T23:40:03.306Z,20.00
2018-06-19T23:42:32.060Z,19.90
2018-06-19T23:45:00.303Z,20.00
2018-06-19T23:47:28.474Z,19.90
2018-06-19T23:49:56.628Z,20.00
2018-06-19T23:52:24.769Z,20.00
2018-06-19T23:54:52.963Z,20.00
2018-06-19T23:57:21.102Z,20.00
2018-06-19T23:59:49.861Z,19.90
